createdAt,value
2022-10-10T00:00:41.659Z,986.56
2022-10-10T00:01:41.652Z,986.73
2022-10-10T00:02:41.616Z,986.82
2022-10-10T00:03:41.623Z,986.48
2022-10-10T00:04:41.584Z,986.21
2022-10-10T00:05:41.593Z,985.66
2022-10-10T00:06:41.554Z,985.65
2022-10-10T00:07:41.573Z,984.28
2022-10-10T00:08:41.534Z,980.97
2022-10-10T00:09:41.524Z,979.92
2022-10-10T00:10:41.520Z,979.45
2022-10-10T00:11:41.494Z,979.03
2022-10-10T00:12:41.516Z,977.92
2022-10-10T00:13:41.484Z,977.85
2022-10-10T00:14:41.509Z,977.69
2022-10-10T00:15:43.717Z,978.25
2022-10-10T00:16:42.474Z,978.22
2022-10-10T00:17:41.435Z,977.72
2022-10-10T00:18:41.421Z,977.35
2022-10-10T00:19:41.411Z,977.16
2022-10-10T00:20:41.405Z,976.67
2022-10-10T00:21:41.394Z,976.67
2022-10-10T00:22:41.405Z,976.99
2022-10-10T00:23:41.376Z,976.99
2022-10-10T00:24:41.366Z,977.10
2022-10-10T00:25:41.345Z,977.92
2022-10-10T00:26:41.326Z,978.19
2022-10-10T00:27:41.335Z,978.53
2022-10-10T00:28:41.377Z,978.86
2022-10-10T00:29:41.296Z,978.28
2022-10-10T00:30:41.296Z,978.10
2022-10-10T00:31:41.290Z,977.98
2022-10-10T00:32:41.276Z,976.90
2022-10-10T00:33:41.292Z,976.67
2022-10-10T00:34:41.269Z,976.43
2022-10-10T00:35:41.218Z,976.57
2022-10-10T00:36:41.216Z,976.79
2022-10-10T00:37:41.210Z,977.48
2022-10-10T00:38:41.226Z,978.13
2022-10-10T00:39:41.189Z,978.99
2022-10-10T00:40:41.178Z,980.81
2022-10-10T00:41:41.176Z,981.85
2022-10-10T00:42:41.176Z,982.51
2022-10-10T00:43:41.130Z,982.72
2022-10-10T00:44:41.149Z,983.34
2022-10-10T00:45:41.118Z,984.50
2022-10-10T00:46:41.099Z,985.77
2022-10-10T00:47:41.161Z,987.38
2022-10-10T00:48:41.130Z,988.26
2022-10-10T00:49:41.068Z,988.81
2022-10-10T00:50:41.056Z,989.37
2022-10-10T00:51:41.072Z,990.59
2022-10-10T00:52:41.036Z,992.18
2022-10-10T00:53:41.047Z,993.41
2022-10-10T00:54:41.039Z,994.39
2022-10-10T00:55:41.001Z,995.55
2022-10-10T00:56:40.991Z,996.43
2022-10-10T00:57:40.979Z,996.48
2022-10-10T00:58:40.989Z,996.65
2022-10-10T00:59:40.959Z,997.07
2022-10-10T01:00:40.984Z,997.90
2022-10-10T01:01:40.952Z,997.83
2022-10-10T01:02:40.954Z,998.31
2022-10-10T01:03:40.910Z,998.56
2022-10-10T01:04:45.187Z,999.21
2022-10-10T01:05:41.189Z,998.71
2022-10-10T01:06:40.882Z,999.29
2022-10-10T01:07:40.893Z,998.99
2022-10-10T01:08:40.868Z,999.93
2022-10-10T01:09:40.860Z,1001.06
2022-10-10T01:10:40.829Z,1001.71
2022-10-10T01:11:40.830Z,1002.22
2022-10-10T01:12:40.844Z,1003.38
2022-10-10T01:13:40.810Z,1004.31
2022-10-10T01:14:40.791Z,1004.96
2022-10-10T01:15:40.844Z,1005.23
2022-10-10T01:16:40.781Z,1005.69
2022-10-10T01:17:40.891Z,1006.72
2022-10-10T01:18:40.764Z,1007.76
2022-10-10T01:19:40.773Z,1008.06
2022-10-10T01:20:40.737Z,1008.91
2022-10-10T01:21:40.708Z,1009.57
2022-10-10T01:22:40.738Z,1010.11
2022-10-10T01:23:40.691Z,1010.60
2022-10-10T01:24:40.693Z,1010.97
2022-10-10T01:25:40.661Z,1011.23
2022-10-10T01:26:40.667Z,1011.51
2022-10-10T01:27:40.651Z,1011.05
2022-10-10T01:28:40.679Z,1011.03
2022-10-10T01:29:40.632Z,1011.36
2022-10-10T01:30:40.612Z,1011.26
2022-10-10T01:31:40.594Z,1011.59
2022-10-10T01:32:40.627Z,1011.38
2022-10-10T01:33:40.573Z,1011.67
2022-10-10T01:34:40.564Z,1010.64
2022-10-10T01:35:40.553Z,1010.51
2022-10-10T01:36:40.552Z,1010.17
2022-10-10T01:37:40.533Z,1008.93
2022-10-10T01:38:40.525Z,1007.92
2022-10-10T01:39:40.523Z,1006.80
2022-10-10T01:40:40.505Z,1006.48
2022-10-10T01:41:40.484Z,1006.63
2022-10-10T01:42:40.512Z,1006.13
2022-10-10T01:43:40.473Z,1006.12
2022-10-10T01:44:40.477Z,1006.30
2022-10-10T01:45:40.434Z,1006.11
2022-10-10T01:46:40.450Z,1005.79
2022-10-10T01:47:40.444Z,1005.95
2022-10-10T01:48:40.403Z,1006.06
2022-10-10T01:49:40.412Z,1006.19
2022-10-10T01:50:40.452Z,1006.39
2022-10-10T01:51:40.384Z,1006.08
2022-10-10T01:52:40.363Z,1005.55
2022-10-10T01:53:40.373Z,1004.81
2022-10-10T01:54:40.344Z,1004.74
2022-10-10T01:55:40.332Z,1004.74
2022-10-10T01:56:40.334Z,1004.25
2022-10-10T01:57:40.338Z,1004.06
2022-10-10T01:58:40.297Z,1003.84
2022-10-10T01:59:40.286Z,1003.79
2022-10-10T02:00:40.348Z,1004.05
2022-10-10T02:01:40.265Z,1003.74
2022-10-10T02:02:40.287Z,1002.74
2022-10-10T02:03:40.264Z,1002.41
2022-10-10T02:04:40.235Z,1002.56
2022-10-10T02:05:40.239Z,1001.94
2022-10-10T02:06:40.224Z,1001.48
2022-10-10T02:07:40.214Z,1000.77
2022-10-10T02:08:40.175Z,999.47
2022-10-10T02:09:40.182Z,998.83
2022-10-10T02:10:40.167Z,998.03
2022-10-10T02:11:40.166Z,997.32
2022-10-10T02:12:40.176Z,998.15
2022-10-10T02:13:40.137Z,998.13
2022-10-10T02:14:40.121Z,998.43
2022-10-10T02:15:40.112Z,998.41
2022-10-10T02:16:40.097Z,998.56
2022-10-10T02:17:40.098Z,998.54
2022-10-10T02:18:40.076Z,999.15
2022-10-10T02:19:40.056Z,999.82
2022-10-10T02:20:40.063Z,1000.12
2022-10-10T02:21:40.066Z,1000.36
2022-10-10T02:22:40.057Z,1000.76
2022-10-10T02:23:40.028Z,1000.80
2022-10-10T02:24:40.013Z,1001.11
2022-10-10T02:25:39.994Z,1001.55
2022-10-10T02:26:39.976Z,1002.03
2022-10-10T02:27:39.989Z,1002.94
2022-10-10T02:28:40.055Z,1003.23
2022-10-10T02:29:39.965Z,1003.66
2022-10-10T02:30:39.939Z,1003.86
2022-10-10T02:31:39.946Z,1004.22
2022-10-10T02:32:39.919Z,1004.48
2022-10-10T02:33:39.897Z,1004.68
2022-10-10T02:34:39.907Z,1004.78
2022-10-10T02:35:39.897Z,1005.10
2022-10-10T02:36:39.877Z,1005.56
2022-10-10T02:37:39.877Z,1006.17
2022-10-10T02:38:39.864Z,1006.46
2022-10-10T02:39:39.838Z,1006.92
2022-10-10T02:40:39.830Z,1007.37
2022-10-10T02:41:39.819Z,1007.50
2022-10-10T02:42:39.809Z,1007.74
2022-10-10T02:43:39.804Z,1007.55
2022-10-10T02:44:39.779Z,1008.16
2022-10-10T02:45:39.777Z,1008.76
2022-10-10T02:46:39.757Z,1009.53
2022-10-10T02:47:39.748Z,1010.28
2022-10-10T02:48:39.747Z,1011.14
2022-10-10T02:49:39.732Z,1011.73
2022-10-10T02:50:39.727Z,1011.97
2022-10-10T02:51:39.760Z,1012.77
2022-10-10T02:52:39.720Z,1013.28
2022-10-10T02:53:39.691Z,1013.98
2022-10-10T02:54:39.659Z,1014.82
2022-10-10T02:55:39.683Z,1015.73
2022-10-10T02:56:39.651Z,1016.40
2022-10-10T02:57:39.639Z,1016.83
2022-10-10T02:58:39.639Z,1017.22
2022-10-10T02:59:39.609Z,1017.60
2022-10-10T03:00:39.608Z,1017.56
2022-10-10T03:01:39.593Z,1017.77
2022-10-10T03:02:39.620Z,1018.42
2022-10-10T03:03:39.561Z,1019.18
2022-10-10T03:04:39.563Z,1020.14
2022-10-10T03:05:39.550Z,1020.93
2022-10-10T03:06:39.540Z,1021.49
2022-10-10T03:07:39.539Z,1021.79
2022-10-10T03:08:39.525Z,1022.25
2022-10-10T03:09:39.499Z,1022.80
2022-10-10T03:10:39.491Z,1023.47
2022-10-10T03:11:39.487Z,1024.11
2022-10-10T03:12:39.475Z,1024.43
2022-10-10T03:13:39.480Z,1024.39
2022-10-10T03:14:39.441Z,1024.50
2022-10-10T03:15:39.440Z,1024.66
2022-10-10T03:16:39.422Z,1024.54
2022-10-10T03:17:39.414Z,1024.31
2022-10-10T03:18:39.402Z,1024.27
2022-10-10T03:19:39.391Z,1024.05
2022-10-10T03:20:39.379Z,1024.41
2022-10-10T03:21:39.370Z,1024.30
2022-10-10T03:22:39.417Z,1024.39
2022-10-10T03:23:39.361Z,1024.71
2022-10-10T03:24:39.322Z,1025.15
2022-10-10T03:25:39.313Z,1025.51
2022-10-10T03:26:39.312Z,1025.42
2022-10-10T03:27:39.323Z,1025.22
2022-10-10T03:28:39.375Z,1025.08
2022-10-10T03:29:39.289Z,1024.79
2022-10-10T03:30:39.261Z,1024.32
2022-10-10T03:31:39.260Z,1023.82
2022-10-10T03:32:39.242Z,1023.77
2022-10-10T03:33:39.286Z,1023.98
2022-10-10T03:34:39.226Z,1024.29
2022-10-10T03:35:39.221Z,1024.29
2022-10-10T03:36:39.203Z,1024.32
2022-10-10T03:37:39.202Z,1024.36
2022-10-10T03:38:39.184Z,1024.50
2022-10-10T03:39:39.201Z,1024.73
2022-10-10T03:40:39.163Z,1024.90
2022-10-10T03:41:39.135Z,1024.98
2022-10-10T03:42:39.133Z,1025.44
2022-10-10T03:43:39.146Z,1025.56
2022-10-10T03:44:39.102Z,1025.58
2022-10-10T03:45:39.116Z,1025.46
2022-10-10T03:46:39.095Z,1025.18
2022-10-10T03:47:39.087Z,1025.10
2022-10-10T03:48:39.073Z,1025.39
2022-10-10T03:49:39.052Z,1025.68
2022-10-10T03:50:39.072Z,1025.78
2022-10-10T03:51:39.026Z,1025.67
2022-10-10T03:52:39.050Z,1025.76
2022-10-10T03:53:39.066Z,1025.70
2022-10-10T03:54:39.020Z,1025.55
2022-10-10T03:55:38.989Z,1025.71
2022-10-10T03:56:38.978Z,1025.75
2022-10-10T03:57:38.977Z,1026.11
2022-10-10T03:58:38.963Z,1025.99
2022-10-10T03:59:38.925Z,1026.20
2022-10-10T04:00:38.951Z,1026.26
2022-10-10T04:01:38.957Z,1026.45
2022-10-10T04:02:38.921Z,1026.63
2022-10-10T04:03:38.905Z,1026.82
2022-10-10T04:04:38.886Z,1026.85
2022-10-10T04:05:38.877Z,1026.86
2022-10-10T04:06:38.856Z,1026.55
2022-10-10T04:07:38.845Z,1026.36
2022-10-10T04:08:38.875Z,1026.52
2022-10-10T04:09:38.838Z,1026.56
2022-10-10T04:10:38.816Z,1026.59
2022-10-10T04:11:38.809Z,1026.36
2022-10-10T04:12:38.796Z,1025.88
2022-10-10T04:13:38.793Z,1025.36
2022-10-10T04:14:38.826Z,1024.74
2022-10-10T04:15:38.761Z,1024.53
2022-10-10T04:16:38.735Z,1024.10
2022-10-10T04:17:38.739Z,1023.63
2022-10-10T04:18:38.747Z,1023.21
2022-10-10T04:19:38.714Z,1022.96
2022-10-10T04:20:38.696Z,1022.70
2022-10-10T04:21:38.688Z,1022.42
2022-10-10T04:22:38.675Z,1022.44
2022-10-10T04:23:38.676Z,1022.30
2022-10-10T04:24:38.684Z,1022.12
2022-10-10T04:25:38.654Z,1022.16
2022-10-10T04:26:38.616Z,1021.69
2022-10-10T04:27:38.656Z,1021.28
2022-10-10T04:28:38.681Z,1020.60
2022-10-10T04:29:38.595Z,1019.93
2022-10-10T04:30:38.577Z,1019.42
2022-10-10T04:31:38.586Z,1018.95
2022-10-10T04:32:38.558Z,1018.57
2022-10-10T04:33:38.568Z,1017.35
2022-10-10T04:34:38.558Z,1016.35
2022-10-10T04:35:38.550Z,1016.27
2022-10-10T04:36:38.519Z,1016.42
2022-10-10T04:37:38.503Z,1016.17
2022-10-10T04:38:38.530Z,1016.19
2022-10-10T04:39:38.489Z,1016.49
2022-10-10T04:40:38.460Z,1016.52
2022-10-10T04:41:38.469Z,1016.34
2022-10-10T04:42:38.461Z,1015.81
2022-10-10T04:43:38.449Z,1015.19
2022-10-10T04:44:38.438Z,1014.50
2022-10-10T04:45:38.423Z,1014.22
2022-10-10T04:46:38.430Z,1013.71
2022-10-10T04:47:38.410Z,1013.30
2022-10-10T04:48:38.399Z,1013.17
2022-10-10T04:49:38.389Z,1013.13
2022-10-10T04:50:38.366Z,1012.62
2022-10-10T04:51:38.437Z,1012.08
2022-10-10T04:52:38.337Z,1011.70
2022-10-10T04:53:38.405Z,1011.71
2022-10-10T04:54:38.309Z,1011.79
2022-10-10T04:55:38.320Z,1011.14
2022-10-10T04:56:38.290Z,1009.38
2022-10-10T04:57:38.287Z,1008.34
2022-10-10T04:58:38.292Z,1006.89
2022-10-10T04:59:38.271Z,1006.17
2022-10-10T05:00:38.240Z,1005.90
2022-10-10T05:01:38.268Z,1005.81
2022-10-10T05:02:38.254Z,1006.06
2022-10-10T05:03:38.211Z,1005.95
2022-10-10T05:04:38.190Z,1006.28
2022-10-10T05:05:38.212Z,1006.51
2022-10-10T05:06:38.191Z,1006.89
2022-10-10T05:07:38.160Z,1006.57
2022-10-10T05:08:38.185Z,1006.17
2022-10-10T05:09:38.153Z,1006.03
2022-10-10T05:10:38.132Z,1005.88
2022-10-10T05:11:38.111Z,1005.41
2022-10-10T05:12:38.112Z,1005.30
2022-10-10T05:13:38.138Z,1005.53
2022-10-10T05:14:38.086Z,1005.41
2022-10-10T05:15:38.083Z,1005.71
2022-10-10T05:16:38.074Z,1005.53
2022-10-10T05:17:38.051Z,1005.73
2022-10-10T05:18:38.041Z,1005.56
2022-10-10T05:19:38.052Z,1005.34
2022-10-10T05:20:38.021Z,1005.23
2022-10-10T05:21:38.006Z,1004.85
2022-10-10T05:22:38.008Z,1005.07
2022-10-10T05:23:38.014Z,1005.36
2022-10-10T05:24:37.972Z,1005.72
2022-10-10T05:25:37.963Z,1006.14
2022-10-10T05:26:42.893Z,1006.46
2022-10-10T05:27:38.954Z,1006.67
2022-10-10T05:28:38.016Z,1007.03
2022-10-10T05:29:37.926Z,1006.80
2022-10-10T05:30:37.912Z,1006.47
2022-10-10T05:31:37.924Z,1006.65
2022-10-10T05:32:37.883Z,1006.45
2022-10-10T05:33:37.884Z,1006.38
2022-10-10T05:34:37.859Z,1006.73
2022-10-10T05:35:37.844Z,1006.94
2022-10-10T05:36:37.883Z,1007.43
2022-10-10T05:37:37.823Z,1008.33
2022-10-10T05:38:37.824Z,1008.90
2022-10-10T05:39:37.824Z,1009.22
2022-10-10T05:40:37.784Z,1009.61
2022-10-10T05:41:37.785Z,1009.64
2022-10-10T05:42:37.764Z,1010.16
2022-10-10T05:43:37.789Z,1010.62
2022-10-10T05:44:37.744Z,1010.96
2022-10-10T05:45:37.738Z,1011.16
2022-10-10T05:46:37.755Z,1011.59
2022-10-10T05:47:37.707Z,1011.89
2022-10-10T05:48:37.726Z,1012.25
2022-10-10T05:49:37.694Z,1012.21
2022-10-10T05:50:37.700Z,1012.82
2022-10-10T05:51:37.656Z,1013.55
2022-10-10T05:52:37.656Z,1013.08
2022-10-10T05:53:37.688Z,1012.94
2022-10-10T05:54:37.672Z,1012.31
2022-10-10T05:55:37.616Z,1012.03
2022-10-10T05:56:37.645Z,1012.31
2022-10-10T05:57:37.587Z,1012.57
2022-10-10T05:58:37.660Z,1012.65
2022-10-10T05:59:37.576Z,1012.56
2022-10-10T06:00:37.576Z,1012.75
2022-10-10T06:01:37.549Z,1012.65
2022-10-10T06:02:37.592Z,1012.68
2022-10-10T06:03:37.555Z,1012.44
2022-10-10T06:04:37.541Z,1012.48
2022-10-10T06:05:37.506Z,1012.87
2022-10-10T06:06:37.500Z,1012.48
2022-10-10T06:08:02.508Z,1012.21
2022-10-10T06:08:38.486Z,1011.83
2022-10-10T06:09:37.466Z,1011.43
2022-10-10T06:10:37.467Z,1010.80
2022-10-10T06:11:37.447Z,1010.26
2022-10-10T06:12:37.438Z,1009.98
2022-10-10T06:13:37.457Z,1009.44
2022-10-10T06:14:37.422Z,1009.27
2022-10-10T06:15:37.398Z,1009.60
2022-10-10T06:16:37.397Z,1009.95
2022-10-10T06:17:37.400Z,1009.98
2022-10-10T06:18:37.392Z,1010.03
2022-10-10T06:19:37.348Z,1010.03
2022-10-10T06:20:37.349Z,1010.31
2022-10-10T06:21:37.330Z,1010.35
2022-10-10T06:22:37.317Z,1010.49
2022-10-10T06:23:37.342Z,1009.72
2022-10-10T06:24:37.308Z,1009.46
2022-10-10T06:25:41.488Z,1009.29
2022-10-10T06:26:37.278Z,1008.98
2022-10-10T06:27:37.280Z,1008.88
2022-10-10T06:28:37.347Z,1008.58
2022-10-10T06:29:37.239Z,1008.52
2022-10-10T06:30:37.235Z,1008.72
2022-10-10T06:31:37.228Z,1008.25
2022-10-10T06:32:37.206Z,1007.67
2022-10-10T06:33:37.217Z,1007.86
2022-10-10T06:34:37.204Z,1008.43
2022-10-10T06:35:37.189Z,1008.82
2022-10-10T06:36:37.170Z,1009.22
2022-10-10T06:37:37.169Z,1009.67
2022-10-10T06:38:37.160Z,1009.64
2022-10-10T06:39:37.128Z,1009.66
2022-10-10T06:40:37.121Z,1009.50
2022-10-10T06:41:37.120Z,1009.83
2022-10-10T06:42:37.091Z,1009.67
2022-10-10T06:43:37.148Z,1009.29
2022-10-10T06:44:37.093Z,1009.18
2022-10-10T06:45:37.070Z,1009.49
2022-10-10T06:46:37.061Z,1009.76
2022-10-10T06:47:37.050Z,1009.75
2022-10-10T06:48:37.047Z,1010.00
2022-10-10T06:49:37.010Z,1009.92
2022-10-10T06:50:37.016Z,1010.09
2022-10-10T06:51:37.004Z,1010.04
2022-10-10T06:52:36.973Z,1010.03
2022-10-10T06:53:36.986Z,1010.03
2022-10-10T06:54:36.960Z,1010.10
2022-10-10T06:55:36.986Z,1010.51
2022-10-10T06:56:36.936Z,1010.78
2022-10-10T06:57:36.933Z,1010.87
2022-10-10T06:58:36.932Z,1010.84
2022-10-10T06:59:36.923Z,1010.88
2022-10-10T07:00:36.881Z,1011.06
2022-10-10T07:01:36.932Z,1010.81
2022-10-10T07:02:36.882Z,1010.91
2022-10-10T07:03:36.878Z,1011.11
2022-10-10T07:04:36.852Z,1011.37
2022-10-10T07:05:36.844Z,1011.66
2022-10-10T07:06:36.821Z,1012.14
2022-10-10T07:07:36.820Z,1012.91
2022-10-10T07:08:36.816Z,1013.07
2022-10-10T07:09:36.793Z,1012.83
2022-10-10T07:10:36.773Z,1013.34
2022-10-10T07:11:36.778Z,1013.72
2022-10-10T07:12:43.542Z,1013.31
2022-10-10T07:13:37.757Z,1013.56
2022-10-10T07:14:36.713Z,1013.85
2022-10-10T07:15:36.723Z,1014.08
2022-10-10T07:16:36.705Z,1014.15
2022-10-10T07:17:36.683Z,1014.23
2022-10-10T07:18:36.728Z,1014.57
2022-10-10T07:19:36.692Z,1014.62
2022-10-10T07:20:36.664Z,1014.34
2022-10-10T07:21:36.633Z,1014.26
2022-10-10T07:22:36.658Z,1014.59
2022-10-10T07:23:36.624Z,1014.25
2022-10-10T07:24:36.603Z,1013.26
2022-10-10T07:25:36.594Z,1013.51
2022-10-10T07:26:36.594Z,1013.15
2022-10-10T07:27:36.567Z,1013.33
2022-10-10T07:28:36.614Z,1012.53
2022-10-10T07:29:36.561Z,1012.41
2022-10-10T07:30:36.545Z,1012.03
2022-10-10T07:31:36.534Z,1012.11
2022-10-10T07:32:36.523Z,1012.02
2022-10-10T07:33:36.536Z,1012.13
2022-10-10T07:34:36.495Z,1012.88
2022-10-10T07:35:36.489Z,1013.63
2022-10-10T07:36:36.494Z,1012.40
2022-10-10T07:37:36.479Z,1008.45
2022-10-10T07:38:36.456Z,1008.65
2022-10-10T07:39:36.435Z,1010.59
2022-10-10T07:40:36.437Z,1012.31
2022-10-10T07:41:36.405Z,1013.01
2022-10-10T07:42:36.410Z,1013.91
2022-10-10T07:43:36.417Z,1013.24
2022-10-10T07:44:36.385Z,1013.28
2022-10-10T07:45:36.369Z,1013.62
2022-10-10T07:46:36.371Z,1014.62
2022-10-10T07:47:36.338Z,1015.27
2022-10-10T07:48:36.326Z,1015.59
2022-10-10T07:49:36.327Z,1015.34
2022-10-10T07:50:36.342Z,1014.91
2022-10-10T07:51:36.295Z,1014.44
2022-10-10T07:52:36.289Z,1013.78
2022-10-10T07:53:36.311Z,1014.30
2022-10-10T07:54:36.265Z,1013.94
2022-10-10T07:55:36.247Z,1013.71
2022-10-10T07:56:36.238Z,1011.54
2022-10-10T07:57:36.228Z,1011.88
2022-10-10T07:58:36.236Z,1014.29
2022-10-10T07:59:36.236Z,1013.06
2022-10-10T08:00:36.232Z,1011.52
2022-10-10T08:01:36.234Z,1009.12
2022-10-10T08:02:36.211Z,1005.98
2022-10-10T08:03:36.204Z,1006.84
2022-10-10T08:04:36.150Z,1011.45
2022-10-10T08:05:36.141Z,1011.23
2022-10-10T08:06:36.129Z,1012.00
2022-10-10T08:07:36.120Z,1013.75
2022-10-10T08:08:42.715Z,1012.92
2022-10-10T08:09:37.103Z,1013.12
2022-10-10T08:10:36.091Z,1012.68
2022-10-10T08:11:36.071Z,1011.69
2022-10-10T08:12:36.050Z,1011.40
2022-10-10T08:13:36.099Z,1010.38
2022-10-10T08:14:36.034Z,1011.89
2022-10-10T08:15:36.021Z,1011.92
2022-10-10T08:16:36.041Z,996.05
2022-10-10T08:17:36.013Z,1003.49
2022-10-10T08:18:36.021Z,1005.69
2022-10-10T08:19:35.976Z,1005.91
2022-10-10T08:20:36.004Z,1004.06
2022-10-10T08:21:35.962Z,999.71
2022-10-10T08:22:35.953Z,1000.63
2022-10-10T08:23:35.944Z,998.60
2022-10-10T08:24:35.961Z,992.69
2022-10-10T08:25:35.926Z,988.92
2022-10-10T08:26:35.922Z,979.72
2022-10-10T08:27:35.918Z,975.36
2022-10-10T08:28:35.928Z,978.49
2022-10-10T08:29:35.863Z,973.61
2022-10-10T08:30:35.865Z,973.98
2022-10-10T08:31:35.844Z,979.41
2022-10-10T08:32:35.835Z,978.97
2022-10-10T08:33:35.864Z,974.40
2022-10-10T08:34:35.813Z,971.71
2022-10-10T08:35:35.793Z,977.75
2022-10-10T08:36:35.800Z,974.66
2022-10-10T08:37:37.475Z,980.00
2022-10-10T08:38:35.774Z,977.97
2022-10-10T08:39:35.735Z,969.72
2022-10-10T08:40:35.766Z,970.22
2022-10-10T08:41:35.724Z,966.09
2022-10-10T08:42:35.714Z,970.48
2022-10-10T08:43:35.734Z,967.94
2022-10-10T08:44:35.685Z,958.10
2022-10-10T08:45:35.675Z,953.27
2022-10-10T08:46:35.664Z,954.70
2022-10-10T08:47:35.667Z,958.47
2022-10-10T08:48:35.653Z,955.17
2022-10-10T08:49:35.637Z,956.22
2022-10-10T08:50:35.627Z,943.04
2022-10-10T08:51:35.607Z,936.62
2022-10-10T08:52:35.589Z,928.82
2022-10-10T08:53:35.605Z,914.43
2022-10-10T08:54:35.585Z,906.64
2022-10-10T08:55:35.565Z,897.96
2022-10-10T08:56:35.547Z,902.71
2022-10-10T08:57:35.563Z,923.97
2022-10-10T08:58:35.583Z,928.33
2022-10-10T08:59:35.517Z,931.45
2022-10-10T09:00:35.579Z,934.24
2022-10-10T09:01:35.509Z,940.02
2022-10-10T09:02:53.107Z,932.00
2022-10-10T09:03:36.512Z,923.09
2022-10-10T09:04:35.467Z,917.52
2022-10-10T09:05:35.462Z,913.85
2022-10-10T09:06:35.432Z,895.25
2022-10-10T09:07:35.428Z,916.98
2022-10-10T09:08:35.440Z,923.47
2022-10-10T09:09:35.408Z,930.09
2022-10-10T09:10:35.397Z,897.06
2022-10-10T09:11:35.393Z,918.59
2022-10-10T09:12:35.375Z,927.77
2022-10-10T09:13:35.381Z,931.67
2022-10-10T09:14:35.339Z,922.90
2022-10-10T09:15:35.347Z,905.75
2022-10-10T09:16:35.319Z,900.88
2022-10-10T09:17:35.344Z,888.89
2022-10-10T09:18:35.328Z,909.35
2022-10-10T09:19:35.302Z,929.29
2022-10-10T09:20:35.277Z,930.00
2022-10-10T09:21:35.302Z,922.53
2022-10-10T09:22:35.271Z,923.05
2022-10-10T09:23:35.271Z,921.25
2022-10-10T09:24:37.053Z,942.92
2022-10-10T09:25:35.242Z,940.51
2022-10-10T09:26:35.212Z,939.12
2022-10-10T09:27:35.211Z,940.11
2022-10-10T09:28:35.266Z,949.18
2022-10-10T09:29:35.181Z,919.79
2022-10-10T09:30:35.176Z,934.21
2022-10-10T09:31:35.153Z,937.30
2022-10-10T09:32:35.155Z,939.14
2022-10-10T09:33:35.151Z,921.94
2022-10-10T09:34:35.112Z,922.46
2022-10-10T09:35:35.121Z,918.37
2022-10-10T09:36:35.100Z,918.76
2022-10-10T09:37:46.723Z,926.86
2022-10-10T09:38:36.107Z,922.62
2022-10-10T09:39:35.063Z,935.56
2022-10-10T09:40:35.054Z,944.53
2022-10-10T09:41:35.033Z,941.49
2022-10-10T09:42:35.059Z,916.66
2022-10-10T09:43:35.023Z,932.93
2022-10-10T09:44:35.014Z,933.11
2022-10-10T09:45:35.013Z,920.47
2022-10-10T09:46:34.986Z,930.56
2022-10-10T09:47:34.964Z,920.00
2022-10-10T09:48:34.968Z,880.08
2022-10-10T09:49:34.955Z,942.75
2022-10-10T09:50:34.923Z,939.90
2022-10-10T09:51:34.919Z,941.01
2022-10-10T09:52:34.931Z,938.95
2022-10-10T09:53:34.905Z,935.07
2022-10-10T09:54:34.874Z,917.69
2022-10-10T09:55:34.894Z,836.76
2022-10-10T09:56:34.855Z,882.26
2022-10-10T09:57:34.846Z,905.61
2022-10-10T09:58:34.850Z,938.30
2022-10-10T09:59:34.824Z,937.32
2022-10-10T10:00:34.806Z,937.18
2022-10-10T10:01:34.914Z,935.63
2022-10-10T10:02:34.786Z,937.42
2022-10-10T10:03:34.809Z,937.82
2022-10-10T10:04:34.759Z,937.20
2022-10-10T10:05:34.773Z,938.34
2022-10-10T10:06:34.749Z,939.19
2022-10-10T10:07:34.731Z,937.54
2022-10-10T10:08:34.736Z,888.00
2022-10-10T10:09:34.753Z,935.78
2022-10-10T10:10:34.702Z,945.72
2022-10-10T10:11:34.681Z,945.03
2022-10-10T10:12:34.672Z,945.99
2022-10-10T10:13:34.732Z,949.97
2022-10-10T10:14:34.640Z,953.25
2022-10-10T10:15:34.681Z,956.45
2022-10-10T10:16:34.695Z,957.52
2022-10-10T10:17:34.629Z,959.20
2022-10-10T10:18:34.683Z,961.81
2022-10-10T10:19:34.598Z,964.96
2022-10-10T10:20:34.590Z,967.79
2022-10-10T10:21:34.630Z,969.36
2022-10-10T10:22:34.560Z,969.77
2022-10-10T10:23:34.576Z,973.07
2022-10-10T10:24:34.530Z,960.12
2022-10-10T10:25:34.518Z,949.75
2022-10-10T10:26:34.531Z,964.31
2022-10-10T10:27:34.512Z,903.47
2022-10-10T10:28:34.565Z,936.61
2022-10-10T10:29:34.752Z,965.83
2022-10-10T10:30:34.473Z,962.66
2022-10-10T10:31:34.475Z,973.39
2022-10-10T10:32:34.434Z,984.01
2022-10-10T10:33:34.455Z,983.77
2022-10-10T10:34:34.423Z,985.81
2022-10-10T10:35:34.413Z,977.60
2022-10-10T10:36:34.404Z,979.25
2022-10-10T10:37:34.393Z,975.56
2022-10-10T10:38:34.394Z,974.02
2022-10-10T10:39:34.382Z,975.21
2022-10-10T10:40:34.353Z,977.36
2022-10-10T10:41:34.370Z,969.24
2022-10-10T10:42:34.323Z,973.51
2022-10-10T10:43:34.354Z,969.94
2022-10-10T10:44:34.328Z,975.81
2022-10-10T10:45:34.306Z,977.84
2022-10-10T10:46:34.566Z,969.11
2022-10-10T10:47:34.390Z,973.31
2022-10-10T10:48:34.289Z,968.62
2022-10-10T10:49:34.301Z,969.12
2022-10-10T10:50:34.266Z,967.58
2022-10-10T10:51:34.246Z,964.74
2022-10-10T10:52:34.239Z,956.45
2022-10-10T10:53:34.237Z,941.62
2022-10-10T10:54:38.243Z,931.07
2022-10-10T10:55:39.056Z,926.03
2022-10-10T10:56:34.191Z,930.46
2022-10-10T10:57:40.889Z,920.95
2022-10-10T11:00:20.273Z,911.86
2022-10-10T11:01:28.548Z,898.92
2022-10-10T11:02:55.025Z,927.25
2022-10-10T11:04:15.993Z,929.75
2022-10-10T11:05:17.603Z,944.95
2022-10-10T11:05:40.776Z,942.30
2022-10-10T11:06:35.194Z,945.30
2022-10-10T11:07:34.127Z,939.47
2022-10-10T11:08:34.101Z,931.80
2022-10-10T11:09:50.640Z,929.95
2022-10-10T11:10:35.013Z,943.55
2022-10-10T11:11:34.010Z,946.69
2022-10-10T11:12:33.990Z,944.06
2022-10-10T11:13:34.823Z,952.76
2022-10-10T11:14:33.971Z,955.00
2022-10-10T11:16:01.463Z,955.97
2022-10-10T11:16:48.091Z,952.14
2022-10-10T11:17:37.253Z,946.64
2022-10-10T11:18:33.912Z,947.96
2022-10-10T11:19:33.943Z,952.35
2022-10-10T11:20:33.891Z,959.09
2022-10-10T11:21:33.886Z,960.55
2022-10-10T11:22:33.919Z,960.23
2022-10-10T11:23:33.891Z,961.23
2022-10-10T11:24:33.845Z,960.82
2022-10-10T11:25:33.953Z,951.11
2022-10-10T11:26:33.833Z,950.47
2022-10-10T11:27:33.815Z,933.22
2022-10-10T11:28:33.834Z,914.22
2022-10-10T11:29:33.805Z,916.78
2022-10-10T11:30:33.777Z,914.57
2022-10-10T11:31:33.785Z,923.72
2022-10-10T11:32:33.762Z,914.02
2022-10-10T11:33:33.754Z,916.07
2022-10-10T11:34:33.727Z,907.40
2022-10-10T11:35:33.736Z,930.81
2022-10-10T11:36:33.706Z,982.70
2022-10-10T11:37:33.686Z,973.33
2022-10-10T11:38:33.697Z,931.42
2022-10-10T11:39:33.666Z,939.10
2022-10-10T11:40:33.649Z,940.52
2022-10-10T11:41:33.638Z,952.28
2022-10-10T11:42:33.629Z,961.22
2022-10-10T11:43:33.631Z,947.63
2022-10-10T11:44:33.607Z,961.92
2022-10-10T11:45:33.599Z,945.76
2022-10-10T11:46:33.584Z,943.39
2022-10-10T11:47:33.568Z,932.11
2022-10-10T11:48:33.583Z,915.49
2022-10-10T11:49:33.599Z,920.77
2022-10-10T11:50:33.528Z,907.20
2022-10-10T11:51:33.575Z,922.75
2022-10-10T11:52:34.577Z,915.32
2022-10-10T11:53:33.519Z,953.92
2022-10-10T11:54:33.490Z,947.60
2022-10-10T11:55:33.498Z,952.59
2022-10-10T11:56:33.470Z,963.96
2022-10-10T11:57:33.526Z,976.96
2022-10-10T11:58:33.484Z,978.50
2022-10-10T11:59:33.418Z,974.76
2022-10-10T12:00:33.411Z,979.20
2022-10-10T12:01:33.404Z,967.68
2022-10-10T12:02:33.391Z,976.10
2022-10-10T12:03:33.396Z,970.88
2022-10-10T12:04:33.373Z,971.77
2022-10-10T12:05:33.368Z,967.79
2022-10-10T12:06:33.356Z,958.67
2022-10-10T12:07:33.340Z,962.10
2022-10-10T12:08:33.359Z,943.12
2022-10-10T12:09:33.333Z,943.13
2022-10-10T12:10:33.313Z,922.95
2022-10-10T12:11:33.295Z,926.57
2022-10-10T12:12:33.283Z,923.43
2022-10-10T12:13:33.299Z,921.15
2022-10-10T12:14:33.254Z,922.68
2022-10-10T12:15:36.223Z,923.97
2022-10-10T12:16:34.277Z,924.78
2022-10-10T12:17:33.233Z,927.74